• Join FlightAware (Why Join?)
  • Login
  • US Flag 
02:32AM EST


 

Airport Tracker/Info


-or-


 

Live Flight TrackerFlight Track Log ✈ SWA1707 ✈ 30-Apr-2013 ✈ KMSY - KDAL

Flight Track Log - Related Links

Times and Time Zones

All times are in EDT time to prevent confusion due to time zone crossing. See the SWA1707 flight status page for this flight to view local times or setup timezone preferences in your user account.

Time Position Orientation Groundspeed Altitude Reporting Facility
EDT Latitude Longitude Course Direction KTS MPH feet Rate Location/Type
08:20PM 29.9844 -90.2536 201° Southwest 158 182 300  Level Houston Center
08:21PM 29.9494 -90.2694 201° Southwest 174 200 2,000 2,231 Climbing Houston Center
08:22PM 29.9519 -90.3006 275° West 272 313 3,200 2,769 Climbing Houston Center
08:23PM 30.0111 -90.3403 330° Northwest 248 285 6,200 3,220 Climbing Houston Center
08:24PM 30.0692 -90.3789 330° Northwest 243 280 9,800 2,732 Climbing Houston Center
08:25PM 30.1297 -90.4306 324° Northwest 272 313 11,800 2,927 Climbing Houston Center
08:26PM 30.2050 -90.4969 323° Northwest 339 390 15,800 3,561 Climbing Houston Center
08:27PM 30.2667 -90.5700 314° West 323 372 19,100 2,758 Climbing Houston Center
08:28PM 30.3311 -90.6464 314° West 330 380 21,500 2,244 Climbing Houston Center
08:29PM 30.4219 -90.7528 315° West 387 445 23,700 2,195 Climbing Houston Center
08:30PM 30.4997 -90.8450 314° West 399 459 26,000 1,790 Climbing Houston Center
08:31PM 30.5561 -90.9608 300° West 416 479 27,400 1,024 Climbing Houston Center
08:32PM 30.6128 -91.0833 298° West 430 495 28,100 1,805 Climbing Houston Center
08:33PM 30.6681 -91.2022 298° West 423 487 31,100 2,390 Climbing Houston Center
08:34PM 30.7208 -91.3161 298° West 405 466 33,000 1,610 Climbing Houston Center
08:35PM 30.7739 -91.4339 298° West 407 468 34,400 1,065 Climbing Houston Center
08:36PM 30.8294 -91.5542 298° West 421 484 35,200 927 Climbing Houston Center
08:37PM 30.8986 -91.7067 298° West 445 512 36,300 1,317 Climbing Houston Center
08:38PM 30.9564 -91.8331 298° West 444 511 37,900 829 Climbing Houston Center
08:39PM 31.0119 -91.9583 297° West 438 504 38,000 49 Climbing Houston Center
08:40PM 31.0625 -92.0686 298° West 431 496 38,000  Level Houston Center
08:41PM 31.1178 -92.1917 298° West 430 495 38,000 293 Level Houston Center
08:42PM 31.1839 -92.3408 297° West 433 498 38,600 823 Climbing Houston Center
08:43PM 31.2386 -92.4639 298° West 430 495 39,700 683 Climbing Houston Center
08:44PM 31.2911 -92.5897 296° West 432 497 40,000 146 Climbing Houston Center
08:45PM 31.3383 -92.7164 294° West 429 494 40,000  Level Houston Center
08:46PM 31.3853 -92.8414 294° West 425 489 40,000  Level Houston Center
08:47PM 31.4322 -92.9686 293° West 427 491 40,000  Level Houston Center
08:48PM 31.4806 -93.0958 294° West 429 494 40,000  Level Houston Center
08:49PM 31.5383 -93.2497 294° West 431 496 40,000  Level Houston Center
08:50PM 31.5872 -93.3814 294° West 431 496 40,000  Level Houston Center
08:51PM 31.6283 -93.4903 294° West 432 497 40,000  Level Fort Worth Center
08:52PM 31.6719 -93.6203 292° West 432 497 40,000  Level Fort Worth Center
08:53PM 31.7197 -93.7478 294° West 432 497 40,000  Level Fort Worth Center
08:54PM 31.7628 -93.8731 292° West 432 497 40,000  Level Fort Worth Center
08:55PM 31.8081 -93.9983 293° West 432 497 40,000  Level Fort Worth Center
08:56PM 31.8556 -94.1383 292° West 422 486 40,000  Level Fort Worth Center
08:57PM 31.8986 -94.2689 291° West 422 486 40,000  Level Fort Worth Center
08:58PM 31.9414 -94.3972 291° West 428 493 40,000  Level Fort Worth Center
08:59PM 31.9839 -94.5233 292° West 428 493 40,000 -500 Level Fort Worth Center
09:00PM 32.0244 -94.6519 290° West 423 487 39,000 -2,050 Descending Fort Worth Center
09:01PM 32.0669 -94.7806 291° West 423 487 35,900 -3,100 Descending Fort Worth Center
09:02PM 32.1094 -94.9167 290° West 433 498 32,800 -2,650 Descending Fort Worth Center
09:03PM 32.1536 -95.0528 291° West 433 498 30,600 -2,200 Descending Fort Worth Center
09:04PM 32.1978 -95.1769 293° West 432 497 28,400 -2,150 Descending Fort Worth Center
09:05PM 32.2375 -95.3086 290° West 432 497 26,300 -2,050 Descending Fort Worth Center
09:06PM 32.2792 -95.4281 292° West 412 474 24,300 -2,000 Descending Fort Worth Center
09:07PM 32.3122 -95.5453 288° West 393 452 22,300 -1,950 Descending Fort Worth Center
09:08PM 32.3494 -95.6550 292° West 379 436 20,400 -1,900 Descending Fort Worth Center
09:09PM 32.3842 -95.7653 290° West 365 420 18,500 -1,900 Descending Fort Worth Center
09:10PM 32.4169 -95.8703 290° West 359 413 16,600 -1,900 Descending Fort Worth Center
09:11PM 32.4494 -95.9731 291° West 340 391 14,700 -1,750 Descending Fort Worth Center
09:12PM 32.4819 -96.0736 291° West 334 384 13,100 -1,700 Descending Fort Worth Center
09:13PM 32.5119 -96.1717 290° West 319 367 11,300 -1,550 Descending Fort Worth Center
09:14PM 32.5422 -96.2675 291° West 319 367 10,000 -1,150 Descending Fort Worth Center
09:15PM 32.5783 -96.3558 296° West 302 348 9,000 -900 Descending Fort Worth Center
09:16PM 32.6231 -96.4367 303° West 291 335 8,200 -900 Descending Fort Worth Center
09:17PM 32.6694 -96.5175 304° West 291 335 7,200 -1,000 Descending Fort Worth Center
09:18PM 32.7242 -96.5861 313° West 291 335 6,200 -950 Descending Fort Worth Center
09:19PM 32.7767 -96.6475 315° West 291 335 5,300 -1,024 Descending Fort Worth Center
09:20PM 32.8000 -96.6833 308° West 293 337 4,800 -1,317 Descending Dallas / Fort Worth TRACON
09:21PM 32.8667 -96.7500 320° Northwest 292 336 3,500 -950 Descending Dallas / Fort Worth TRACON
09:22PM 32.9167 -96.8167 312° West 269 310 2,900 -300 Descending Dallas / Fort Worth TRACON
09:23PM 32.9500 -96.8667 308° West 177 204 2,900 -400 Level Dallas / Fort Worth TRACON
09:24PM 32.9167 -96.9000 220° Southwest 133 153 2,100 -800 Descending Dallas / Fort Worth TRACON
09:25PM 32.8833 -96.9000 180° South 139 160 1,300 -494 Descending Dallas / Fort Worth TRACON
09:26PM 32.8406 -96.8819 160° South 108 124 800 -306 Descending Fort Worth Center